createdAt,value
2023-02-22T00:00:49.974Z,101240.19
2023-02-22T00:05:55.317Z,101240.56
2023-02-22T00:10:58.533Z,101235.94
2023-02-22T00:16:03.457Z,101242.63
2023-02-22T00:21:10.521Z,101237.03
2023-02-22T00:26:18.148Z,101235.56
2023-02-22T00:31:23.453Z,101234.72
2023-02-22T00:36:26.300Z,101231.66
2023-02-22T00:41:29.583Z,101226.88
2023-02-22T00:46:33.740Z,101226.47
2023-02-22T00:51:36.740Z,101225.69
2023-02-22T00:56:39.601Z,101229.75
2023-02-22T01:01:44.019Z,101232.19
2023-02-22T01:06:46.759Z,101223.72
2023-02-22T01:11:49.961Z,101220.81
2023-02-22T01:16:55.224Z,101219.03
2023-02-22T01:21:58.839Z,101225.47
2023-02-22T01:27:02.550Z,101221.78
2023-02-22T01:32:09.453Z,101215.66
2023-02-22T01:37:12.482Z,101213.53
2023-02-22T01:42:15.249Z,101214.69
2023-02-22T01:47:19.335Z,101206.13
2023-02-22T01:52:23.972Z,101200.22
2023-02-22T01:57:30.220Z,101190.56
2023-02-22T02:02:34.373Z,101184.56
2023-02-22T02:07:39.763Z,101192.97
2023-02-22T02:12:45.465Z,101194.09
2023-02-22T02:17:51.537Z,101192.63
2023-02-22T02:23:06.175Z,101188.31
2023-02-22T02:28:37.070Z,101181.25
2023-02-22T02:33:46.960Z,101175.47
2023-02-22T02:38:56.651Z,101175.00
2023-02-22T02:44:03.480Z,101172.41
2023-02-22T02:49:14.207Z,101161.22
2023-02-22T02:54:17.823Z,101160.84
2023-02-22T02:59:27.115Z,101153.88
2023-02-22T03:04:46.038Z,101144.84
2023-02-22T03:10:00.571Z,101141.38
2023-02-22T03:15:14.547Z,101140.72
2023-02-22T03:20:31.547Z,101140.63
2023-02-22T03:25:41.290Z,101128.66
2023-02-22T03:30:49.913Z,101132.66
2023-02-22T03:35:57.747Z,101123.38
2023-02-22T03:41:03.772Z,101131.03
2023-02-22T03:46:29.301Z,101130.91
2023-02-22T03:51:34.344Z,101129.97
2023-02-22T03:56:47.352Z,101125.09
2023-02-22T04:01:51.093Z,101132.44
2023-02-22T04:06:55.785Z,101130.25
2023-02-22T04:11:59.463Z,101129.28
2023-02-22T04:17:03.709Z,101135.69
2023-02-22T04:22:08.656Z,101135.28
2023-02-22T04:27:11.563Z,101132.72
2023-02-22T04:32:15.297Z,101134.00
2023-02-22T04:37:19.815Z,101133.13
2023-02-22T04:42:22.658Z,101123.47
2023-02-22T04:47:25.956Z,101122.00
2023-02-22T04:52:30.221Z,101128.06
2023-02-22T04:57:33.559Z,101120.78
2023-02-22T05:02:36.632Z,101120.09
2023-02-22T05:07:41.064Z,101115.53
2023-02-22T05:12:43.873Z,101109.94
2023-02-22T05:17:46.806Z,101121.13
2023-02-22T05:22:51.990Z,101123.63
2023-02-22T05:27:56.340Z,101120.38
2023-02-22T05:33:00.206Z,101121.28
2023-02-22T05:38:04.772Z,101118.88
2023-02-22T05:43:07.724Z,101123.47
2023-02-22T05:48:10.453Z,101114.56
2023-02-22T05:53:14.657Z,101108.28
2023-02-22T05:58:17.508Z,101106.00
2023-02-22T06:03:20.332Z,101101.03
2023-02-22T06:08:27.009Z,101101.72
2023-02-22T06:13:33.353Z,101103.19
2023-02-22T06:18:36.116Z,101109.31
2023-02-22T06:23:40.321Z,101107.50
2023-02-22T06:28:43.045Z,101110.38
2023-02-22T06:33:51.450Z,101112.69
2023-02-22T06:38:57.239Z,101107.16
2023-02-22T06:43:59.996Z,101111.09
2023-02-22T06:49:02.698Z,101115.97
2023-02-22T06:54:07.120Z,101111.19
2023-02-22T06:59:09.904Z,101109.63
2023-02-22T07:04:12.623Z,101112.75
2023-02-22T07:09:19.903Z,101113.28
2023-02-22T07:14:23.216Z,101104.59
2023-02-22T07:19:26.037Z,101102.91
2023-02-22T07:24:30.244Z,101106.81
2023-02-22T07:29:35.960Z,101107.69
2023-02-22T07:34:39.446Z,101110.69
2023-02-22T07:39:43.807Z,101109.25
2023-02-22T07:44:46.821Z,101113.13
2023-02-22T07:49:55.537Z,101097.84
2023-02-22T07:55:07.177Z,101099.38
2023-02-22T08:00:15.152Z,101094.66
2023-02-22T08:05:19.061Z,101091.59
2023-02-22T08:11:02.767Z,101083.03
2023-02-22T08:16:08.020Z,101080.22
2023-02-22T08:21:10.730Z,101076.41
2023-02-22T08:26:18.437Z,101077.28
2023-02-22T08:31:21.415Z,101080.06
2023-02-22T08:36:25.013Z,101075.53
2023-02-22T08:41:30.602Z,101071.84
2023-02-22T08:46:39.393Z,101078.34
2023-02-22T08:51:42.327Z,101080.03
2023-02-22T08:56:46.756Z,101071.03
2023-02-22T09:01:49.802Z,101059.50
2023-02-22T09:07:18.521Z,101067.28
2023-02-22T09:12:29.625Z,101074.16
2023-02-22T09:17:38.046Z,101083.00
2023-02-22T09:22:43.392Z,101073.81
2023-02-22T09:27:49.717Z,101069.00
2023-02-22T09:32:54.116Z,101067.63
2023-02-22T09:37:57.610Z,101063.50
2023-02-22T09:43:14.006Z,101065.63
2023-02-22T09:48:22.334Z,101061.31
2023-02-22T09:53:30.393Z,101061.69
2023-02-22T09:58:41.890Z,101068.81
2023-02-22T10:03:51.592Z,101063.59
2023-02-22T10:08:58.134Z,101058.03
2023-02-22T10:14:09.234Z,101049.31
2023-02-22T10:19:26.548Z,101033.44
2023-02-22T10:24:39.704Z,101038.78
2023-02-22T10:29:48.662Z,101035.25
2023-02-22T10:34:54.486Z,101032.00
2023-02-22T10:40:05.829Z,101024.63
2023-02-22T10:45:22.800Z,101009.81
2023-02-22T10:50:27.559Z,101002.53
2023-02-22T10:55:30.406Z,100989.22
2023-02-22T11:00:38.238Z,100975.16
2023-02-22T11:05:42.154Z,100968.91
2023-02-22T11:10:45.084Z,100964.38
2023-02-22T11:15:50.515Z,100967.22
2023-02-22T11:21:01.964Z,100957.03
2023-02-22T11:26:09.700Z,100955.53
2023-02-22T11:31:17.571Z,100932.66
2023-02-22T11:36:32.708Z,100936.53
2023-02-22T11:41:36.159Z,100940.59
2023-02-22T11:46:42.816Z,100925.22
2023-02-22T11:52:01.003Z,100929.28
2023-02-22T11:57:22.165Z,100925.75
2023-02-22T12:02:51.808Z,100912.56
2023-02-22T12:08:19.743Z,100910.06
2023-02-22T12:13:36.780Z,100894.69
2023-02-22T12:18:53.417Z,100896.88
2023-02-22T12:24:03.281Z,100890.13
2023-02-22T12:29:14.464Z,100884.38
2023-02-22T12:34:30.373Z,100888.53
2023-02-22T12:39:52.823Z,100884.44
2023-02-22T12:45:04.079Z,100879.88
2023-02-22T12:50:16.022Z,100883.44
2023-02-22T12:55:24.984Z,100882.44
2023-02-22T13:00:33.127Z,100878.09
2023-02-22T13:05:40.438Z,100868.16
2023-02-22T13:10:59.043Z,100871.25
2023-02-22T13:16:11.697Z,100859.53
2023-02-22T13:21:20.996Z,100861.38
2023-02-22T13:26:28.886Z,100862.63
2023-02-22T13:31:45.366Z,100861.88
2023-02-22T13:37:04.135Z,100846.41
2023-02-22T13:42:19.335Z,100849.59
2023-02-22T13:47:46.679Z,100841.59
2023-02-22T13:52:52.720Z,100852.00
2023-02-22T13:58:03.343Z,100843.66
2023-02-22T14:03:30.024Z,100835.63
2023-02-22T14:08:51.997Z,100833.31
2023-02-22T14:14:19.127Z,100837.19
2023-02-22T14:19:23.776Z,100831.25
2023-02-22T14:24:28.126Z,100826.16
2023-02-22T14:29:32.042Z,100827.63
2023-02-22T14:34:49.742Z,100813.69
2023-02-22T14:40:02.138Z,100806.88
2023-02-22T14:45:17.059Z,100808.47
2023-02-22T14:50:24.821Z,100807.69
2023-02-22T14:55:32.437Z,100802.78
2023-02-22T15:00:41.166Z,100791.03
2023-02-22T15:05:43.924Z,100796.59
2023-02-22T15:10:54.280Z,100787.84
2023-02-22T15:16:01.892Z,100799.91
2023-02-22T15:21:11.002Z,100780.28
2023-02-22T15:26:23.815Z,100788.78
2023-02-22T15:31:32.563Z,100773.91
2023-02-22T15:36:35.403Z,100777.84
2023-02-22T15:41:40.575Z,100770.59
2023-02-22T15:46:43.387Z,100771.56
2023-02-22T15:51:51.583Z,100767.34
2023-02-22T15:56:56.632Z,100769.09
2023-02-22T16:02:00.484Z,100779.22
2023-02-22T16:07:16.800Z,100779.41
2023-02-22T16:12:28.231Z,100787.38
2023-02-22T16:17:36.868Z,100782.81
2023-02-22T16:22:41.021Z,100780.16
2023-02-22T16:27:48.285Z,100782.22
2023-02-22T16:32:54.066Z,100786.00
2023-02-22T16:38:00.296Z,100784.19
2023-02-22T16:43:07.457Z,100789.97
2023-02-22T16:48:16.167Z,100793.16
2023-02-22T16:53:20.896Z,100790.00
2023-02-22T16:58:27.851Z,100795.22
2023-02-22T17:03:30.642Z,100800.06
2023-02-22T17:08:33.380Z,100804.34
2023-02-22T17:13:39.395Z,100801.56
2023-02-22T17:18:42.122Z,100803.94
2023-02-22T17:23:46.108Z,100804.81
2023-02-22T17:28:50.625Z,100812.09
2023-02-22T17:33:53.470Z,100814.41
2023-02-22T17:38:56.624Z,100810.06
2023-02-22T17:44:00.738Z,100811.88
2023-02-22T17:49:04.236Z,100814.00
2023-02-22T17:54:08.265Z,100813.66
2023-02-22T17:59:13.179Z,100823.50
2023-02-22T18:04:15.941Z,100821.75
2023-02-22T18:09:20.275Z,100827.06
2023-02-22T18:14:24.877Z,100810.19
2023-02-22T18:19:29.478Z,100816.81
2023-02-22T18:24:34.500Z,100813.06
2023-02-22T18:29:39.486Z,100810.53
2023-02-22T18:34:43.556Z,100818.25
2023-02-22T18:39:46.538Z,100809.19
2023-02-22T18:44:51.115Z,100802.56
2023-02-22T18:49:53.999Z,100802.41
2023-02-22T18:55:08.865Z,100811.09
2023-02-22T19:00:34.340Z,100810.44
2023-02-22T19:05:40.765Z,100807.84
2023-02-22T19:10:43.622Z,100804.63
2023-02-22T19:15:48.921Z,100803.81
2023-02-22T19:20:56.774Z,100800.69
2023-02-22T19:25:59.546Z,100799.88
2023-02-22T19:31:18.477Z,100804.66
2023-02-22T19:36:23.946Z,100804.59
2023-02-22T19:41:26.704Z,100790.28
2023-02-22T19:46:31.082Z,100790.91
2023-02-22T19:51:34.389Z,100798.44
2023-02-22T19:56:37.252Z,100789.91
2023-02-22T20:01:44.207Z,100784.91
2023-02-22T20:21:15.738Z,100788.31
2023-02-22T20:26:24.150Z,100783.13
2023-02-22T20:31:32.388Z,100781.59
2023-02-22T20:37:06.784Z,100784.38
2023-02-22T20:42:15.586Z,100788.56
2023-02-22T20:54:48.359Z,100772.91
2023-02-22T21:00:12.690Z,100775.59
2023-02-22T21:06:07.271Z,100783.22
2023-02-22T21:11:26.163Z,100767.91
2023-02-22T21:35:02.436Z,100769.84
2023-02-22T21:40:29.678Z,100769.03
2023-02-22T21:45:57.228Z,100760.91
2023-02-22T21:51:13.889Z,100766.66
2023-02-22T21:56:20.198Z,100767.28
2023-02-22T22:01:27.145Z,100756.53
2023-02-22T22:06:34.373Z,100761.13
2023-02-22T22:11:37.329Z,100759.88
2023-02-22T22:16:40.453Z,100765.81
2023-02-22T22:21:46.582Z,100763.25
2023-02-22T22:26:51.066Z,100765.59
2023-02-22T22:31:54.469Z,100766.88
2023-02-22T22:36:58.999Z,100755.97
2023-02-22T22:42:01.851Z,100764.19
2023-02-22T22:47:05.881Z,100762.09
2023-02-22T22:52:11.385Z,100760.59
2023-02-22T22:57:14.614Z,100756.72
2023-02-22T23:02:20.487Z,100750.31
2023-02-22T23:07:24.616Z,100746.03
2023-02-22T23:12:31.467Z,100747.06
2023-02-22T23:17:41.175Z,100756.50
2023-02-22T23:22:47.235Z,100751.13
2023-02-22T23:27:53.096Z,100756.69
2023-02-22T23:32:57.437Z,100759.03
2023-02-22T23:38:01.712Z,100766.41
2023-02-22T23:43:05.758Z,100763.41
2023-02-22T23:48:08.498Z,100763.88
2023-02-22T23:53:15.237Z,100762.88
2023-02-22T23:58:17.970Z,100761.31
